aviador You're here:

LFBD Decoded Metar

BORDEAUX in FRANCE
Report Time2018-01-19 05:00:00
UTC Time2018-01-19 05:24:29
Flight Rules vfr VFR
Wind230° at 06 kt
W.Decomp.*RWY 23: 6.0 kt HW 0.1 kt RCW
RWY 29: 3.1 kt HW 5.1 kt LCW
W.Rank230° ranks 9
Current wind is below 230° avg. (6.4)
Visibility9999 m
Phenomena:N/A
Clouds:Few 023 Hf
Broken 056 Hf
Expected CloudBase > 400 ft AGL from Temp-Dew spread
Ceiling5,600 ft
Temp09°C (ISA -6)
Dew Point08°C (94% RH)
AAT6.4°C
QNH1018 hPa
Density Alt-495 ft
Elevation200 ft
Report Wrong Elevation
Raw Report
LFBD 190500Z AUTO 23006KT 9999 FEW023 BKN056 09/08 Q1018 NOSIG=

Extra information for LFBD:More info

Metar Taf Metar & Taf Last 4 Metars F.Rules Stats Wind Profile Meteogram Temp Stats Airport Information Weather charts Add Link Nearby VenuesMetar ALERT Operation Metar Decoded Social comments